Time;durP1;ratioP1;P1;durP2;ratioP2;P2;SDS_P1;SDS_P2;PMS_P1;PMS_P2;Temp;Humidity;BMP_temperature;BMP_pressure;BME280_temperature;BME280_humidity;BME280_pressure;Samples;Min_cycle;Max_cycle;Signal;HPM_P1;HPM_P2
2024/04/19 00:01:59;;;;;;;2.55;0.93;;;16.70;71.60;;;;;;5423015;26;19996;-60
2024/04/19 00:04:24;;;;;;;3.42;1.20;;;16.70;71.60;;;;;;5423255;26;19995;-60
2024/04/19 00:06:50;;;;;;;5.80;1.20;;;16.70;72.10;;;;;;5419075;26;20580;-60
2024/04/19 00:09:16;;;;;;;5.82;1.25;;;16.60;71.60;;;;;;5427150;26;20365;-60
2024/04/19 00:11:41;;;;;;;3.28;1.20;;;16.60;71.50;;;;;;5425421;26;20789;-60
2024/04/19 00:14:07;;;;;;;4.55;1.20;;;16.60;71.50;;;;;;5428995;26;20043;-59
2024/04/19 00:16:32;;;;;;;3.05;1.17;;;16.60;71.60;;;;;;5422913;26;20009;-60
2024/04/19 00:18:58;;;;;;;3.10;1.13;;;16.60;71.60;;;;;;5429607;26;20003;-59
2024/04/19 00:21:24;;;;;;;3.63;1.05;;;16.60;71.50;;;;;;5422267;26;20002;-59
2024/04/19 00:23:49;;;;;;;3.25;1.10;;;16.60;71.50;;;;;;5425419;26;20003;-59
2024/04/19 00:26:17;;;;;;;3.35;1.10;;;16.60;71.50;;;;;;5426616;26;20031;-60
2024/04/19 00:28:42;;;;;;;3.13;1.00;;;16.60;71.50;;;;;;5426560;26;20000;-59
2024/04/19 00:31:11;;;;;;;4.65;1.10;;;16.60;71.50;;;;;;5428148;26;20014;-59
2024/04/19 00:33:36;;;;;;;3.40;1.10;;;16.60;71.50;;;;;;5419787;26;19999;-59
2024/04/19 00:36:02;;;;;;;4.20;1.20;;;16.60;71.50;;;;;;5437267;26;20455;-59
2024/04/19 00:38:28;;;;;;;3.50;0.90;;;16.50;71.40;;;;;;5429225;26;20003;-59
2024/04/19 00:40:54;;;;;;;3.15;1.10;;;16.50;71.40;;;;;;5427719;26;20076;-59
2024/04/19 00:43:20;;;;;;;4.05;1.17;;;16.60;71.50;;;;;;5429369;26;20338;-59
2024/04/19 00:45:46;;;;;;;3.03;1.10;;;16.60;71.50;;;;;;5420485;26;20003;-59
2024/04/19 00:48:16;;;;;;;2.47;1.00;;;16.50;71.40;;;;;;5426647;26;20451;-59
2024/04/19 00:50:43;;;;;;;;;;;16.50;71.40;;;;;;5427746;26;20212;-59
2024/04/19 00:53:10;;;;;;;3.63;1.20;;;16.50;71.40;;;;;;5425164;26;19933;-59
2024/04/19 00:55:36;;;;;;;3.33;1.10;;;16.50;71.40;;;;;;5425287;26;20004;-60
2024/04/19 00:58:02;;;;;;;3.42;1.10;;;16.50;71.40;;;;;;5430325;26;19998;-59
2024/04/19 01:00:29;;;;;;;2.35;1.00;;;16.50;71.40;;;;;;5423729;26;20005;-59
2024/04/19 01:02:57;;;;;;;3.83;1.00;;;16.50;71.40;;;;;;5428989;26;20004;-59
2024/04/19 01:05:24;;;;;;;2.65;0.98;;;16.50;71.40;;;;;;5424055;26;20000;-59
2024/04/19 01:07:50;;;;;;;3.63;0.93;;;16.70;71.50;;;;;;5429053;26;20009;-59
2024/04/19 01:10:16;;;;;;;5.15;1.00;;;16.50;71.50;;;;;;5424012;26;19998;-59
2024/04/19 01:12:42;;;;;;;3.75;1.15;;;16.50;71.50;;;;;;5427337;26;20003;-59
2024/04/19 01:15:20;;;;;;;5.80;1.20;;;16.50;71.50;;;;;;5427078;26;20009;-60
2024/04/19 01:17:46;;;;;;;1.83;0.90;;;16.50;71.50;;;;;;5428292;26;20000;-60
2024/04/19 01:20:13;;;;;;;2.90;1.00;;;16.40;71.40;;;;;;5424475;26;20889;-59
2024/04/19 01:22:39;;;;;;;3.83;1.13;;;16.40;71.50;;;;;;5424150;26;20004;-60
2024/04/19 01:25:35;;;;;;;3.47;1.00;;;16.40;71.50;;;;;;5428126;26;20017;-59
2024/04/19 01:28:04;;;;;;;3.92;1.02;;;16.40;71.50;;;;;;5421910;26;20004;-60
2024/04/19 01:30:30;;;;;;;2.67;1.00;;;16.40;71.60;;;;;;5428945;26;19998;-60
2024/04/19 01:32:55;;;;;;;3.28;1.05;;;16.40;71.60;;;;;;5425203;26;20492;-60
2024/04/19 01:35:21;;;;;;;2.97;1.20;;;16.40;71.60;;;;;;5418077;26;19996;-60
2024/04/19 01:37:49;;;;;;;2.33;1.00;;;16.40;71.60;;;;;;5409113;26;20246;-61
2024/04/19 01:40:15;;;;;;;3.53;1.08;;;16.40;71.60;;;;;;5402667;26;19996;-60
2024/04/19 01:42:40;;;;;;;3.10;1.10;;;16.40;71.60;;;;;;5424661;26;20007;-60
2024/04/19 01:45:06;;;;;;;4.03;1.10;;;16.40;71.70;;;;;;5422942;26;20011;-60
2024/04/19 01:47:32;;;;;;;4.07;1.25;;;16.40;71.60;;;;;;5428764;26;20580;-60
2024/04/19 01:49:57;;;;;;;3.88;1.15;;;16.40;71.70;;;;;;5427634;26;20071;-60
2024/04/19 01:52:23;;;;;;;3.63;1.02;;;16.30;71.70;;;;;;5428044;26;20050;-61
2024/04/19 01:54:49;;;;;;;3.13;1.02;;;16.40;71.70;;;;;;5425917;26;20003;-61
2024/04/19 01:57:14;;;;;;;2.88;1.00;;;16.30;71.60;;;;;;5431639;26;20068;-61
2024/04/19 01:59:40;;;;;;;2.28;0.98;;;16.40;71.70;;;;;;5438953;26;20350;-61
2024/04/19 02:02:05;;;;;;;2.15;0.90;;;16.30;71.60;;;;;;5427502;26;20010;-61
2024/04/19 02:04:32;;;;;;;2.53;1.05;;;16.30;71.60;;;;;;5421198;26;20014;-61
2024/04/19 02:06:58;;;;;;;3.97;1.20;;;16.30;71.70;;;;;;5429828;26;20039;-61
2024/04/19 02:09:24;;;;;;;3.40;0.95;;;16.30;71.70;;;;;;5422870;26;20004;-61
2024/04/19 02:11:50;;;;;;;3.03;0.82;;;16.30;71.70;;;;;;5431175;26;20003;-61
2024/04/19 02:14:16;;;;;;;3.60;1.10;;;16.30;71.80;;;;;;5426932;26;20029;-61
2024/04/19 02:16:41;;;;;;;2.50;1.00;;;16.30;71.80;;;;;;5425206;26;20006;-61
2024/04/19 02:19:07;;;;;;;2.30;1.10;;;16.30;71.80;;;;;;5427618;26;19995;-60
2024/04/19 02:21:33;;;;;;;3.40;1.08;;;16.30;71.90;;;;;;5427446;26;20004;-60
2024/04/19 02:24:01;;;;;;;2.70;1.00;;;16.30;71.90;;;;;;5425966;26;20605;-60
2024/04/19 02:26:28;;;;;;;3.88;1.20;;;16.20;71.90;;;;;;5423563;26;20017;-60
2024/04/19 02:31:39;;;;;;;3.65;1.02;;;16.30;72.00;;;;;;5427531;26;20574;-60
2024/04/19 02:34:05;;;;;;;3.83;1.30;;;16.30;72.00;;;;;;5423266;26;20007;-60
2024/04/19 02:36:31;;;;;;;3.15;1.00;;;16.30;72.00;;;;;;5434193;26;19994;-60
2024/04/19 02:38:56;;;;;;;3.50;1.10;;;16.20;72.00;;;;;;5427446;26;19999;-59
2024/04/19 02:41:22;;;;;;;2.70;1.10;;;16.20;72.00;;;;;;5428564;26;20003;-59
2024/04/19 02:43:47;;;;;;;5.40;1.30;;;16.20;72.10;;;;;;5422605;26;20453;-59
2024/04/19 02:46:14;;;;;;;5.25;1.27;;;16.20;72.10;;;;;;5419943;26;20025;-59
2024/04/19 02:48:40;;;;;;;2.78;1.08;;;16.20;72.10;;;;;;5422603;26;20034;-60
2024/04/19 02:51:05;;;;;;;3.30;1.00;;;16.20;72.20;;;;;;5426196;26;19999;-59
2024/04/19 02:53:32;;;;;;;3.08;1.10;;;16.20;72.20;;;;;;5420954;26;19999;-60
2024/04/19 02:55:59;;;;;;;3.83;1.05;;;16.20;72.20;;;;;;5424421;26;19999;-59
2024/04/19 02:58:24;;;;;;;3.08;1.05;;;16.20;72.20;;;;;;5425141;26;20014;-59
2024/04/19 03:00:50;;;;;;;3.22;1.10;;;16.20;72.20;;;;;;5422596;26;20031;-60
2024/04/19 03:03:16;;;;;;;2.30;1.00;;;16.10;72.20;;;;;;5427890;26;19999;-59
2024/04/19 03:05:41;;;;;;;3.40;1.08;;;16.10;72.20;;;;;;5422732;26;19999;-59
2024/04/19 03:08:07;;;;;;;3.30;1.10;;;16.10;72.20;;;;;;5425790;26;20000;-59
2024/04/19 03:10:38;;;;;;;3.15;0.90;;;16.10;72.30;;;;;;5424348;26;20002;-60
2024/04/19 03:13:05;;;;;;;3.30;1.00;;;16.10;72.30;;;;;;5425539;26;20015;-60
2024/04/19 03:15:31;;;;;;;2.97;0.95;;;16.10;72.30;;;;;;5423970;26;20002;-60
2024/04/19 03:17:56;;;;;;;3.65;1.10;;;16.10;72.60;;;;;;5424035;26;20616;-59
2024/04/19 03:20:22;;;;;;;3.17;1.00;;;16.10;72.70;;;;;;5426526;26;20010;-59
2024/04/19 03:22:47;;;;;;;3.47;1.10;;;16.10;72.80;;;;;;5419485;26;20007;-59
2024/04/19 03:25:13;;;;;;;2.95;1.10;;;16.10;72.70;;;;;;5421021;26;19999;-59
2024/04/19 03:27:39;;;;;;;2.20;0.90;;;16.10;72.80;;;;;;5426810;26;20007;-59
2024/04/19 03:30:07;;;;;;;2.80;0.98;;;16.10;72.70;;;;;;5423396;26;19995;-59
2024/04/19 03:32:33;;;;;;;3.65;1.08;;;16.20;72.70;;;;;;5424540;26;20454;-59
2024/04/19 03:34:59;;;;;;;3.17;1.13;;;16.20;72.70;;;;;;5420092;26;19995;-59
2024/04/19 03:37:24;;;;;;;2.22;0.95;;;16.20;72.60;;;;;;5429903;26;20013;-59
2024/04/19 03:39:50;;;;;;;3.38;1.10;;;16.20;72.70;;;;;;5422198;26;20039;-59
2024/04/19 03:42:20;;;;;;;3.20;1.10;;;16.20;72.60;;;;;;5427276;26;19995;-59
2024/04/19 03:47:29;;;;;;;2.28;0.90;;;16.30;72.60;;;;;;5423734;26;20353;-60
2024/04/19 03:49:55;;;;;;;2.08;0.98;;;16.30;72.60;;;;;;5425386;26;20002;-60
2024/04/19 03:52:23;;;;;;;4.20;1.13;;;16.30;72.60;;;;;;5418591;26;19999;-60
2024/04/19 03:54:49;;;;;;;2.10;0.90;;;16.40;72.60;;;;;;5427147;26;20446;-60
2024/04/19 03:57:14;;;;;;;2.28;0.98;;;16.40;72.60;;;;;;5420292;26;19999;-60
2024/04/19 03:59:40;;;;;;;2.78;1.05;;;16.40;72.50;;;;;;5427650;26;20043;-59
2024/04/19 04:02:05;;;;;;;3.03;0.90;;;16.50;72.50;;;;;;5425791;26;20011;-60
2024/04/19 04:04:31;;;;;;;3.42;1.02;;;16.50;72.50;;;;;;5424206;26;20649;-59
2024/04/19 04:06:58;;;;;;;2.55;0.95;;;16.50;72.50;;;;;;5427460;26;20000;-60
2024/04/19 04:09:24;;;;;;;2.92;1.30;;;16.50;72.50;;;;;;5427722;26;20007;-60
2024/04/19 04:11:52;;;;;;;3.45;1.00;;;16.50;72.40;;;;;;5426284;26;19999;-60
2024/04/19 04:14:17;;;;;;;2.67;1.00;;;16.50;72.40;;;;;;5429751;26;19999;-59
2024/04/19 04:16:43;;;;;;;3.88;1.10;;;16.60;72.40;;;;;;5424542;26;20559;-60
2024/04/19 04:19:08;;;;;;;3.22;1.08;;;16.60;72.40;;;;;;5432207;26;19999;-59
2024/04/19 04:21:34;;;;;;;3.42;1.02;;;16.60;72.40;;;;;;5429356;26;20018;-59
2024/04/19 04:24:00;;;;;;;2.85;1.05;;;16.60;72.40;;;;;;5424257;26;19998;-60
2024/04/19 04:26:25;;;;;;;2.88;0.90;;;16.60;72.30;;;;;;5427378;26;20085;-60
2024/04/19 04:28:51;;;;;;;3.50;1.00;;;16.60;72.30;;;;;;5428978;26;19995;-60
2024/04/19 04:31:16;;;;;;;2.53;1.00;;;16.70;72.30;;;;;;5418047;26;19999;-60
2024/04/19 04:33:42;;;;;;;2.60;1.00;;;16.70;72.30;;;;;;5422897;26;20031;-60
2024/04/19 04:36:08;;;;;;;1.95;1.00;;;16.70;72.30;;;;;;5434237;26;20014;-60
2024/04/19 04:38:36;;;;;;;2.65;0.90;;;16.70;72.20;;;;;;5421880;26;20008;-60
2024/04/19 04:41:01;;;;;;;2.83;0.95;;;16.70;72.20;;;;;;5427896;26;20067;-60
2024/04/19 04:43:27;;;;;;;3.80;1.23;;;16.70;72.20;;;;;;5429763;26;20007;-60
2024/04/19 04:45:53;;;;;;;3.80;1.02;;;16.70;72.10;;;;;;5427466;26;20067;-59
2024/04/19 04:48:18;;;;;;;5.00;1.23;;;16.70;72.10;;;;;;5425252;26;19999;-59
2024/04/19 04:50:44;;;;;;;2.60;1.00;;;16.70;72.10;;;;;;5430548;26;19995;-60
2024/04/19 04:53:10;;;;;;;1.58;0.90;;;16.70;72.10;;;;;;5421956;26;19995;-60
2024/04/19 04:55:35;;;;;;;1.55;0.90;;;16.70;72.10;;;;;;5429660;26;20449;-59
2024/04/19 04:58:01;;;;;;;2.63;1.00;;;16.60;72.10;;;;;;5433377;26;19999;-60
2024/04/19 05:00:28;;;;;;;2.00;0.90;;;16.60;72.10;;;;;;5429028;26;20003;-60
2024/04/19 05:02:58;;;;;;;2.95;0.93;;;16.60;72.20;;;;;;5433284;26;20020;-60
2024/04/19 05:05:24;;;;;;;2.17;0.90;;;16.60;72.20;;;;;;5428498;26;20008;-60
2024/04/19 05:07:50;;;;;;;1.50;0.82;;;16.60;72.30;;;;;;5425125;26;20003;-60
2024/04/19 05:10:16;;;;;;;2.03;0.90;;;16.60;72.30;;;;;;5427480;26;20003;-60
2024/04/19 05:12:42;;;;;;;2.67;0.90;;;16.50;72.40;;;;;;5432416;26;20915;-60
2024/04/19 05:15:08;;;;;;;2.85;1.00;;;16.50;72.40;;;;;;5428973;26;19994;-61
2024/04/19 05:17:35;;;;;;;2.13;0.85;;;16.50;72.50;;;;;;5426966;26;20008;-60
2024/04/19 05:20:01;;;;;;;1.95;0.90;;;16.50;72.50;;;;;;5434718;26;20019;-61
2024/04/19 05:22:27;;;;;;;2.38;0.90;;;16.50;72.50;;;;;;5424533;26;20346;-60
2024/04/19 05:24:52;;;;;;;2.75;0.93;;;16.50;72.50;;;;;;5428274;26;20010;-60
2024/04/19 05:27:18;;;;;;;2.40;0.80;;;16.50;72.50;;;;;;5428017;26;20003;-60
2024/04/19 05:29:43;;;;;;;3.97;1.13;;;16.50;72.50;;;;;;5435716;26;19998;-60
2024/04/19 05:32:09;;;;;;;2.83;0.90;;;16.60;72.50;;;;;;5429076;26;20017;-60
2024/04/19 05:34:35;;;;;;;3.70;1.02;;;16.60;72.50;;;;;;5431236;26;20667;-61
2024/04/19 05:37:00;;;;;;;2.97;1.00;;;16.60;72.40;;;;;;5437188;26;20075;-60
2024/04/19 05:39:26;;;;;;;1.67;0.80;;;16.60;72.50;;;;;;5428383;26;20014;-62
2024/04/19 05:41:51;;;;;;;2.03;0.80;;;16.60;72.40;;;;;;5435441;26;19999;-60
2024/04/19 05:44:19;;;;;;;0.90;0.70;;;16.60;72.30;;;;;;5433078;26;20003;-62
2024/04/19 05:46:45;;;;;;;3.33;0.90;;;16.60;72.30;;;;;;5422617;26;20014;-60
2024/04/19 05:49:11;;;;;;;2.42;0.82;;;16.60;72.30;;;;;;5442222;26;20007;-62
2024/04/19 05:51:37;;;;;;;1.95;0.82;;;16.60;72.40;;;;;;5429094;26;20097;-61
2024/04/19 05:54:02;;;;;;;2.13;0.90;;;16.70;72.40;;;;;;5426809;26;20506;-61
2024/04/19 05:56:28;;;;;;;2.03;0.82;;;16.70;72.30;;;;;;5427172;26;19999;-61
2024/04/19 05:58:57;;;;;;;0.90;0.70;;;16.70;72.20;;;;;;5425687;26;19999;-61
2024/04/19 06:01:23;;;;;;;1.30;0.73;;;16.80;72.20;;;;;;5429970;26;19999;-60
2024/04/19 06:03:48;;;;;;;2.25;0.80;;;16.80;72.30;;;;;;5430240;26;20006;-60
2024/04/19 06:06:14;;;;;;;2.72;0.80;;;16.80;72.30;;;;;;5434052;26;19995;-59
2024/04/19 06:08:39;;;;;;;1.67;0.80;;;16.80;72.20;;;;;;5426401;26;19999;-59
2024/04/19 06:11:05;;;;;;;2.83;1.05;;;16.80;72.20;;;;;;5422762;26;20401;-59
2024/04/19 06:13:31;;;;;;;1.80;0.73;;;16.80;72.20;;;;;;5427525;26;20006;-59
2024/04/19 06:15:56;;;;;;;1.42;0.80;;;16.80;72.20;;;;;;5423234;26;20003;-59
2024/04/19 06:18:22;;;;;;;2.33;0.80;;;16.80;72.70;;;;;;5426480;26;20000;-59
2024/04/19 06:20:48;;;;;;;2.47;0.90;;;16.80;72.20;;;;;;5425611;26;20014;-59
2024/04/19 06:23:15;;;;;;;1.98;0.80;;;16.80;72.20;;;;;;5422219;26;20004;-59
2024/04/19 06:25:40;;;;;;;0.95;0.70;;;16.80;72.20;;;;;;5426140;26;20083;-59
2024/04/19 06:28:06;;;;;;;1.65;0.80;;;16.70;72.20;;;;;;5423753;26;20019;-59
2024/04/19 06:30:31;;;;;;;1.63;0.80;;;16.70;72.20;;;;;;5426492;26;20013;-59
2024/04/19 06:32:57;;;;;;;1.67;0.75;;;16.70;72.20;;;;;;5421993;26;20014;-59
2024/04/19 06:35:23;;;;;;;1.67;0.70;;;16.70;72.30;;;;;;5422555;26;20011;-59
2024/04/19 06:37:48;;;;;;;2.30;0.73;;;16.70;72.30;;;;;;5428826;26;20011;-59
2024/04/19 06:40:14;;;;;;;0.82;0.60;;;16.70;72.40;;;;;;5425588;26;20343;-60
2024/04/19 06:42:40;;;;;;;0.70;0.60;;;16.60;72.40;;;;;;5429599;26;19999;-60
2024/04/19 06:45:06;;;;;;;1.45;0.75;;;16.60;72.40;;;;;;5422026;26;20384;-59
2024/04/19 06:47:34;;;;;;;1.63;0.70;;;16.60;72.50;;;;;;5427938;26;19995;-59
2024/04/19 06:50:00;;;;;;;0.60;0.60;;;16.60;72.50;;;;;;5423121;26;20072;-59
2024/04/19 06:52:25;;;;;;;2.97;0.80;;;16.60;72.50;;;;;;5425324;26;20007;-59
2024/04/19 06:54:53;;;;;;;1.23;0.65;;;16.60;72.60;;;;;;5424379;26;20014;-59
2024/04/19 06:57:21;;;;;;;1.58;0.70;;;16.60;72.60;;;;;;5427951;26;20000;-59
2024/04/19 06:59:47;;;;;;;0.93;0.60;;;16.60;72.60;;;;;;5424049;26;20010;-59
2024/04/19 07:02:13;;;;;;;1.08;0.70;;;16.50;72.60;;;;;;5425859;26;20015;-59
2024/04/19 07:04:39;;;;;;;1.30;0.60;;;16.50;72.60;;;;;;5420228;26;20010;-59
2024/04/19 07:07:05;;;;;;;1.02;0.63;;;16.50;72.60;;;;;;5427607;26;19998;-59
2024/04/19 07:09:30;;;;;;;0.60;0.60;;;16.50;72.60;;;;;;5422152;26;20336;-59
2024/04/19 07:11:58;;;;;;;1.02;0.70;;;16.50;72.70;;;;;;5428557;26;20018;-59
2024/04/19 07:14:27;;;;;;;0.60;0.60;;;16.50;72.70;;;;;;5421846;26;20446;-59
2024/04/19 07:16:52;;;;;;;2.28;0.80;;;16.50;72.80;;;;;;5422543;26;20044;-59
2024/04/19 07:19:18;;;;;;;1.27;0.70;;;16.50;72.80;;;;;;5427089;26;20613;-60
2024/04/19 07:21:43;;;;;;;0.90;0.60;;;16.50;72.90;;;;;;5423879;26;20003;-59
2024/04/19 07:24:09;;;;;;;0.88;0.65;;;16.40;73.00;;;;;;5422725;26;20490;-59
2024/04/19 07:26:38;;;;;;;2.10;0.70;;;16.40;73.00;;;;;;5425264;26;20010;-60
2024/04/19 07:29:05;;;;;;;2.47;0.80;;;16.40;73.10;;;;;;5421933;26;20442;-60
2024/04/19 07:31:30;;;;;;;1.10;0.70;;;16.40;73.10;;;;;;5425394;26;20045;-59
2024/04/19 07:33:56;;;;;;;1.60;0.70;;;16.40;73.10;;;;;;5422044;26;20007;-59
2024/04/19 07:36:21;;;;;;;0.93;0.80;;;16.40;73.20;;;;;;5425432;26;19996;-59
2024/04/19 07:38:47;;;;;;;0.90;0.70;;;16.40;73.30;;;;;;5430009;26;20023;-59
2024/04/19 07:41:13;;;;;;;1.75;0.80;;;16.30;73.30;;;;;;5426773;26;20010;-59
2024/04/19 07:43:41;;;;;;;1.15;0.70;;;16.30;73.30;;;;;;5427471;26;19999;-59
2024/04/19 07:46:06;;;;;;;1.40;0.70;;;16.30;73.40;;;;;;5423046;26;20003;-59
2024/04/19 07:48:32;;;;;;;1.33;0.65;;;16.30;73.40;;;;;;5428379;26;20009;-59
2024/04/19 07:51:00;;;;;;;1.25;0.60;;;16.30;73.50;;;;;;5424922;26;20014;-59
2024/04/19 07:53:26;;;;;;;0.80;0.60;;;16.30;73.50;;;;;;5428506;26;20014;-59
2024/04/19 07:55:51;;;;;;;1.38;0.60;;;16.30;73.50;;;;;;5424529;26;20018;-59
2024/04/19 07:58:17;;;;;;;1.45;0.70;;;16.30;73.60;;;;;;5430479;26;20035;-59
2024/04/19 08:00:44;;;;;;;0.60;0.50;;;16.30;73.60;;;;;;5425670;26;20506;-59
2024/04/19 08:03:10;;;;;;;2.45;0.88;;;16.30;73.50;;;;;;5424294;26;20011;-59
2024/04/19 08:05:35;;;;;;;1.73;0.80;;;16.30;73.60;;;;;;5426786;26;20387;-59
2024/04/19 08:08:01;;;;;;;1.13;0.70;;;16.20;73.60;;;;;;5428790;26;20843;-59
2024/04/19 08:10:27;;;;;;;1.40;0.60;;;16.30;73.70;;;;;;5425462;26;19999;-59
2024/04/19 08:12:53;;;;;;;1.63;0.80;;;16.20;73.60;;;;;;5429490;26;20002;-60
2024/04/19 08:15:21;;;;;;;1.48;0.63;;;16.30;73.80;;;;;;5424986;26;20000;-59
2024/04/19 08:17:46;;;;;;;1.33;0.70;;;16.30;73.90;;;;;;5429186;26;19995;-59
2024/04/19 08:20:12;;;;;;;1.65;0.70;;;16.20;73.90;;;;;;5425723;26;20757;-59
2024/04/19 08:22:38;;;;;;;2.65;0.73;;;16.20;74.00;;;;;;5424352;26;20007;-60
2024/04/19 08:25:06;;;;;;;0.60;0.60;;;16.30;74.00;;;;;;5427661;26;20039;-59
2024/04/19 08:27:33;;;;;;;0.85;0.68;;;16.20;74.00;;;;;;5426507;26;20011;-60
2024/04/19 08:29:59;;;;;;;0.90;0.70;;;16.30;74.00;;;;;;5431302;26;19998;-60
2024/04/19 08:32:24;;;;;;;0.73;0.60;;;16.30;74.00;;;;;;5427027;26;20000;-60
2024/04/19 08:34:55;;;;;;;0.90;0.70;;;16.40;74.10;;;;;;5425198;26;20007;-60
2024/04/19 08:37:21;;;;;;;0.75;0.60;;;16.40;74.10;;;;;;5433981;26;20003;-60
2024/04/19 08:39:51;;;;;;;0.88;0.70;;;16.40;74.00;;;;;;5439514;26;20014;-60
2024/04/19 08:42:16;;;;;;;1.20;0.70;;;16.40;74.00;;;;;;5434735;26;19999;-60
2024/04/19 08:44:45;;;;;;;3.33;0.80;;;16.50;74.10;;;;;;5428000;26;20273;-60
2024/04/19 08:47:14;;;;;;;1.63;0.80;;;16.50;74.10;;;;;;5430675;26;20048;-60
2024/04/19 08:49:42;;;;;;;1.43;0.70;;;16.50;74.10;;;;;;5425927;26;20019;-61
2024/04/19 08:52:08;;;;;;;0.73;0.70;;;16.50;74.10;;;;;;5424323;26;20008;-61
2024/04/19 08:54:36;;;;;;;1.35;0.73;;;16.50;74.00;;;;;;5426372;26;19999;-61
2024/04/19 08:57:04;;;;;;;1.88;0.80;;;16.50;74.00;;;;;;5426777;26;20003;-61
2024/04/19 08:59:31;;;;;;;1.33;0.75;;;16.60;74.00;;;;;;5427966;26;20003;-61
2024/04/19 09:01:57;;;;;;;1.40;0.75;;;16.60;74.00;;;;;;5425337;26;20004;-61
2024/04/19 09:04:22;;;;;;;2.10;0.80;;;16.60;74.00;;;;;;5430027;26;20069;-61
2024/04/19 09:06:48;;;;;;;2.08;0.80;;;16.60;74.00;;;;;;5423781;26;20010;-61
2024/04/19 09:09:15;;;;;;;1.55;0.73;;;16.60;74.00;;;;;;5424822;26;20019;-61
2024/04/19 09:11:44;;;;;;;0.93;0.70;;;16.60;74.00;;;;;;5432409;26;20011;-61
2024/04/19 09:14:10;;;;;;;1.90;0.80;;;16.60;74.00;;;;;;5430050;26;20007;-61
2024/04/19 09:16:35;;;;;;;0.95;0.70;;;16.60;74.00;;;;;;5425613;26;20068;-59
2024/04/19 09:19:01;;;;;;;1.50;0.80;;;16.60;74.10;;;;;;5426427;26;20428;-59
2024/04/19 09:21:27;;;;;;;1.48;0.77;;;16.60;74.10;;;;;;5426907;26;20050;-60
2024/04/19 09:23:55;;;;;;;2.05;0.85;;;16.60;74.20;;;;;;5421023;26;20011;-60
2024/04/19 09:26:22;;;;;;;1.60;0.88;;;16.60;74.20;;;;;;5428672;26;20169;-59
2024/04/19 09:28:50;;;;;;;1.88;0.90;;;16.60;74.20;;;;;;5420589;26;20006;-59
2024/04/19 09:31:15;;;;;;;2.53;0.90;;;16.70;74.40;;;;;;5428956;26;20338;-60
2024/04/19 09:33:41;;;;;;;2.92;1.02;;;16.70;74.40;;;;;;5420573;26;19999;-59
2024/04/19 09:36:09;;;;;;;2.10;0.90;;;16.60;74.40;;;;;;5433200;26;20039;-60
2024/04/19 09:38:39;;;;;;;2.75;0.98;;;16.60;74.40;;;;;;5423249;26;20007;-60
2024/04/19 09:41:07;;;;;;;2.83;0.88;;;16.60;74.50;;;;;;5429238;26;20027;-59
2024/04/19 09:43:36;;;;;;;2.17;0.90;;;16.60;74.50;;;;;;5425294;26;19999;-60
2024/04/19 09:46:03;;;;;;;2.45;1.00;;;16.60;74.60;;;;;;5420505;26;19996;-60
2024/04/19 09:48:38;;;;;;;1.98;1.00;;;16.60;74.60;;;;;;5426454;26;20002;-60
2024/04/19 09:51:05;;;;;;;2.25;1.00;;;16.60;74.60;;;;;;5427697;26;20043;-60
2024/04/19 09:53:34;;;;;;;1.60;0.90;;;16.60;74.70;;;;;;5423061;26;20011;-60
2024/04/19 09:56:03;;;;;;;2.53;1.00;;;16.60;74.70;;;;;;5426754;26;20014;-60
2024/04/19 09:58:29;;;;;;;2.10;1.00;;;16.60;74.80;;;;;;5429178;26;20021;-60
2024/04/19 10:00:56;;;;;;;1.75;1.00;;;16.60;74.80;;;;;;5426220;26;19999;-60
2024/04/19 10:03:23;;;;;;;2.53;1.08;;;16.60;74.80;;;;;;5425127;26;20053;-60
2024/04/19 10:05:50;;;;;;;2.75;1.10;;;16.50;74.80;;;;;;5424009;26;20036;-60
2024/04/19 10:08:15;;;;;;;1.92;0.90;;;16.60;74.90;;;;;;5430142;26;19999;-60
2024/04/19 10:10:44;;;;;;;2.72;1.10;;;16.50;75.00;;;;;;5422781;26;20014;-60
2024/04/19 10:13:12;;;;;;;2.00;1.00;;;16.50;75.00;;;;;;5423356;26;20781;-60
2024/04/19 10:15:38;;;;;;;2.30;1.00;;;16.50;75.00;;;;;;5428034;26;20096;-60
2024/04/19 10:18:04;;;;;;;2.25;1.00;;;16.50;75.00;;;;;;5424168;26;20343;-60
2024/04/19 10:20:29;;;;;;;3.53;1.20;;;16.50;75.00;;;;;;5427000;26;20015;-60
2024/04/19 10:22:57;;;;;;;2.15;1.00;;;16.50;75.00;;;;;;5422792;26;20822;-60
2024/04/19 10:25:29;;;;;;;2.25;1.00;;;16.50;75.00;;;;;;5425381;26;19995;-59
2024/04/19 10:27:56;;;;;;;2.17;1.05;;;16.50;75.10;;;;;;5425742;26;20009;-59
2024/04/19 10:30:28;;;;;;;2.70;1.10;;;16.50;75.10;;;;;;5423492;26;20007;-59
2024/04/19 10:32:58;;;;;;;2.45;1.02;;;16.40;75.20;;;;;;5424982;26;19995;-59
2024/04/19 10:35:24;;;;;;;3.42;1.20;;;16.40;75.30;;;;;;5422597;26;20003;-59
2024/04/19 10:37:50;;;;;;;2.45;1.02;;;16.40;75.50;;;;;;5428197;26;20000;-59
2024/04/19 10:40:16;;;;;;;2.47;1.00;;;16.40;75.60;;;;;;5428072;26;19998;-60
2024/04/19 10:42:42;;;;;;;2.60;1.02;;;16.40;75.50;;;;;;5429298;26;20068;-60
2024/04/19 10:45:14;;;;;;;2.85;1.20;;;16.40;75.60;;;;;;5422783;26;20782;-60
2024/04/19 10:47:41;;;;;;;2.30;1.00;;;16.40;75.70;;;;;;5428420;26;20010;-59
2024/04/19 10:50:07;;;;;;;2.20;0.88;;;16.40;75.70;;;;;;5422296;26;20006;-59
2024/04/19 10:52:34;;;;;;;2.00;0.90;;;16.50;75.70;;;;;;5420618;26;20338;-59
2024/04/19 10:55:00;;;;;;;2.55;1.02;;;16.40;75.70;;;;;;5425161;26;20014;-60
2024/04/19 10:57:29;;;;;;;2.53;1.08;;;16.50;75.80;;;;;;5425372;26;20817;-60
2024/04/19 10:59:55;;;;;;;2.35;1.00;;;16.50;75.80;;;;;;5425069;26;20000;-60
2024/04/19 11:02:22;;;;;;;3.45;1.20;;;16.50;75.80;;;;;;5428119;26;20013;-59
2024/04/19 11:04:48;;;;;;;2.22;1.10;;;16.50;75.80;;;;;;5419972;26;20007;-60
2024/04/19 11:07:14;;;;;;;2.67;1.10;;;16.50;75.90;;;;;;5426886;26;20068;-59
2024/04/19 11:09:39;;;;;;;3.22;1.17;;;16.50;75.90;;;;;;5419723;26;20007;-59
2024/04/19 11:12:05;;;;;;;3.80;1.17;;;16.50;76.00;;;;;;5428336;26;20067;-59
2024/04/19 11:14:31;;;;;;;2.42;1.10;;;16.50;76.10;;;;;;5423096;26;20404;-59
2024/04/19 11:16:56;;;;;;;2.97;1.10;;;16.50;76.50;;;;;;5425112;26;20081;-60
2024/04/19 11:19:23;;;;;;;3.67;1.10;;;16.50;76.00;;;;;;5425277;26;20071;-59
2024/04/19 11:21:49;;;;;;;2.30;1.05;;;16.50;76.00;;;;;;5420782;26;19999;-60
2024/04/19 11:24:18;;;;;;;2.50;1.10;;;16.50;76.10;;;;;;5426245;26;20081;-60
2024/04/19 11:26:44;;;;;;;2.33;1.00;;;16.60;76.10;;;;;;5421558;26;20008;-60
2024/04/19 11:29:10;;;;;;;4.32;1.20;;;16.50;76.00;;;;;;5425352;26;20127;-59
2024/04/19 11:31:35;;;;;;;2.63;1.10;;;16.50;76.00;;;;;;5420974;26;20006;-59
2024/04/19 11:34:03;;;;;;;2.50;1.08;;;16.50;76.00;;;;;;5418893;26;19995;-60
2024/04/19 11:36:34;;;;;;;2.67;0.85;;;16.50;76.00;;;;;;5424939;26;20105;-60
2024/04/19 11:39:02;;;;;;;2.28;1.00;;;16.50;76.10;;;;;;5426499;26;19994;-59
2024/04/19 11:41:28;;;;;;;2.38;1.10;;;16.50;76.00;;;;;;5426808;26;20447;-59
2024/04/19 11:43:58;;;;;;;1.80;0.88;;;16.50;76.00;;;;;;5426224;26;20000;-60
2024/04/19 11:46:28;;;;;;;3.10;1.20;;;16.60;76.10;;;;;;5420511;26;20385;-59
2024/04/19 11:48:56;;;;;;;;;;;16.60;76.10;;;;;;5423246;26;20510;-59
2024/04/19 11:51:22;;;;;;;2.53;0.93;;;16.60;76.10;;;;;;5425429;26;19964;-59
2024/04/19 11:53:47;;;;;;;1.98;0.98;;;16.60;76.10;;;;;;5419992;26;20088;-60
2024/04/19 11:56:13;;;;;;;1.45;0.85;;;16.60;76.20;;;;;;5423307;26;20069;-60
2024/04/19 11:58:39;;;;;;;2.05;0.90;;;16.60;76.20;;;;;;5430856;26;20458;-61
2024/04/19 12:01:05;;;;;;;2.53;0.98;;;16.60;76.70;;;;;;5430114;26;20014;-61
2024/04/19 12:03:33;;;;;;;2.47;0.98;;;16.60;76.30;;;;;;5416094;26;20455;-61
2024/04/19 12:05:59;;;;;;;2.22;1.00;;;16.70;76.30;;;;;;5429878;26;19994;-61
2024/04/19 12:08:24;;;;;;;2.50;1.00;;;16.60;76.30;;;;;;5426001;26;20010;-61
2024/04/19 12:10:52;;;;;;;2.70;1.05;;;16.70;76.40;;;;;;5428443;26;20010;-61
2024/04/19 12:13:18;;;;;;;3.38;0.93;;;16.70;76.40;;;;;;5431062;26;20003;-61
2024/04/19 12:15:43;;;;;;;2.65;0.90;;;16.70;76.50;;;;;;5431226;26;20100;-61
2024/04/19 12:18:11;;;;;;;2.83;0.98;;;16.70;76.50;;;;;;5432730;26;20481;-61
2024/04/19 12:20:37;;;;;;;3.00;1.02;;;16.70;76.50;;;;;;5432501;26;20046;-61
2024/04/19 12:23:03;;;;;;;2.25;0.88;;;16.70;76.50;;;;;;5434249;26;20050;-61
2024/04/19 12:25:28;;;;;;;2.17;0.80;;;16.70;76.50;;;;;;5429363;26;20458;-61
2024/04/19 12:27:54;;;;;;;1.70;0.90;;;16.70;76.50;;;;;;5433848;26;20429;-61
2024/04/19 12:30:20;;;;;;;1.67;0.80;;;16.70;76.50;;;;;;5430963;26;20031;-61
2024/04/19 12:32:46;;;;;;;2.15;0.80;;;16.70;76.50;;;;;;5431010;26;19999;-61
2024/04/19 12:35:12;;;;;;;2.38;1.00;;;16.70;76.50;;;;;;5421204;26;20045;-61
2024/04/19 12:37:38;;;;;;;2.05;0.90;;;16.70;76.50;;;;;;5432274;26;19999;-61
2024/04/19 12:40:04;;;;;;;2.22;0.90;;;16.70;76.50;;;;;;5434356;26;20052;-61
2024/04/19 12:42:30;;;;;;;1.65;0.75;;;16.70;76.50;;;;;;5438963;26;20013;-61
2024/04/19 12:44:56;;;;;;;1.80;0.80;;;16.70;76.50;;;;;;5435890;26;20000;-61
2024/04/19 12:47:24;;;;;;;1.55;0.80;;;16.70;76.60;;;;;;5428475;26;20015;-61
2024/04/19 12:49:50;;;;;;;2.25;0.95;;;16.70;76.60;;;;;;5433646;26;20003;-61